createdAt,value
2023-01-30T00:00:54.940Z,-0.18
2023-01-30T00:03:22.323Z,-0.08
2023-01-30T00:05:48.937Z,-0.18
2023-01-30T00:08:16.040Z,-0.24
2023-01-30T00:10:42.784Z,-0.23
2023-01-30T00:13:09.741Z,-0.43
2023-01-30T00:15:36.535Z,-0.45
2023-01-30T00:18:03.452Z,-0.45
2023-01-30T00:20:30.304Z,-0.51
2023-01-30T00:23:00.992Z,-0.49
2023-01-30T00:25:28.555Z,-0.37
2023-01-30T00:27:55.208Z,-0.30
2023-01-30T00:30:21.667Z,-0.32
2023-01-30T00:32:48.220Z,-0.33
2023-01-30T00:35:14.653Z,-0.46
2023-01-30T00:37:40.988Z,-0.30
2023-01-30T00:40:07.818Z,-0.30
2023-01-30T00:42:52.956Z,-0.20
2023-01-30T00:45:38.213Z,-0.25
2023-01-30T00:48:04.753Z,-0.53
2023-01-30T00:50:42.376Z,-0.66
2023-01-30T00:53:13.685Z,-0.60
2023-01-30T00:55:40.791Z,-0.64
2023-01-30T00:58:07.410Z,-0.58
2023-01-30T01:00:33.867Z,-0.60
2023-01-30T01:03:00.666Z,-0.57
2023-01-30T01:05:27.921Z,-0.43
2023-01-30T01:07:55.038Z,-0.52
2023-01-30T01:10:21.895Z,-0.48
2023-01-30T01:12:50.420Z,-0.61
2023-01-30T01:15:17.103Z,-0.52
2023-01-30T01:17:43.996Z,-0.68
2023-01-30T01:20:10.827Z,-0.72
2023-01-30T01:22:37.219Z,-0.72
2023-01-30T01:25:04.425Z,-0.74
2023-01-30T01:27:30.974Z,-0.77
2023-01-30T01:29:57.299Z,-0.70
2023-01-30T01:32:23.799Z,-0.67
2023-01-30T01:34:50.132Z,-0.71
2023-01-30T01:37:16.475Z,-0.66
2023-01-30T01:40:01.654Z,-0.62
2023-01-30T01:42:31.906Z,-0.62
2023-01-30T01:45:13.455Z,-0.75
2023-01-30T01:47:49.495Z,-0.84
2023-01-30T01:50:21.083Z,-0.92
2023-01-30T01:52:52.469Z,-0.93
2023-01-30T01:55:21.237Z,-0.93
2023-01-30T01:57:53.588Z,-0.96
2023-01-30T02:00:21.445Z,-1.08
2023-01-30T02:03:01.344Z,-1.10
2023-01-30T02:05:33.973Z,-1.01
2023-01-30T02:08:06.156Z,-1.00
2023-01-30T02:10:54.436Z,-1.06
2023-01-30T02:13:21.051Z,-0.98
2023-01-30T02:15:47.538Z,-1.06
2023-01-30T02:18:15.208Z,-0.92
2023-01-30T02:21:27.382Z,-0.99
2023-01-30T02:24:32.203Z,-0.91
2023-01-30T02:27:07.746Z,-0.98
2023-01-30T02:29:53.050Z,-1.03
2023-01-30T02:32:38.313Z,-1.17
2023-01-30T02:35:17.727Z,-1.16
2023-01-30T02:37:44.183Z,-1.05
2023-01-30T02:40:25.860Z,-0.96
2023-01-30T02:43:18.752Z,-0.97
2023-01-30T02:45:54.515Z,-1.03
2023-01-30T02:48:30.845Z,-0.93
2023-01-30T02:51:01.128Z,-0.87
2023-01-30T02:53:32.846Z,-0.81
2023-01-30T02:55:59.461Z,-0.80
2023-01-30T02:58:31.155Z,-1.02
2023-01-30T03:01:26.917Z,-1.03
2023-01-30T03:04:11.242Z,-0.86
2023-01-30T03:07:32.773Z,-0.87
2023-01-30T03:10:37.751Z,-0.95
2023-01-30T03:13:19.455Z,-0.93
2023-01-30T03:16:02.876Z,-0.78
2023-01-30T03:18:29.638Z,-0.78
2023-01-30T03:20:56.868Z,-0.54
2023-01-30T03:23:23.212Z,-0.21
2023-01-30T03:25:49.913Z,-0.20
2023-01-30T03:28:19.450Z,-0.18
2023-01-30T03:30:45.831Z,-0.08
2023-01-30T03:33:12.203Z,0.00
2023-01-30T03:35:39.044Z,-0.60
2023-01-30T03:38:05.419Z,-0.81
2023-01-30T03:40:32.119Z,-0.80
2023-01-30T03:42:58.653Z,-0.53
2023-01-30T03:45:25.016Z,-0.63
2023-01-30T03:47:51.879Z,-0.77
2023-01-30T03:50:18.212Z,-0.78
2023-01-30T03:52:44.525Z,-0.94
2023-01-30T03:55:11.257Z,-0.99
2023-01-30T03:57:37.823Z,-0.76
2023-01-30T04:00:04.763Z,-0.68
2023-01-30T04:02:31.149Z,-0.80
2023-01-30T04:04:57.491Z,-0.98
2023-01-30T04:07:24.135Z,-0.95
2023-01-30T04:09:50.509Z,-0.99
2023-01-30T04:12:16.847Z,-0.93
2023-01-30T04:14:43.169Z,-0.86
2023-01-30T04:17:09.479Z,-0.84
2023-01-30T04:19:35.801Z,-0.87
2023-01-30T04:22:02.137Z,-0.76
2023-01-30T04:24:28.500Z,-0.70
2023-01-30T04:26:54.881Z,-0.79
2023-01-30T04:29:21.192Z,-0.69
2023-01-30T04:31:47.498Z,-0.70
2023-01-30T04:34:14.001Z,-0.78
2023-01-30T04:36:40.347Z,-0.72
2023-01-30T04:39:06.701Z,-0.66
2023-01-30T04:41:33.032Z,-0.76
2023-01-30T04:43:59.343Z,-0.95
2023-01-30T04:46:25.695Z,-1.07
2023-01-30T04:48:52.158Z,-1.01
2023-01-30T04:51:18.476Z,-1.06
2023-01-30T04:53:44.865Z,-1.17
2023-01-30T04:56:11.424Z,-1.18
2023-01-30T04:58:37.767Z,-1.20
2023-01-30T05:01:22.809Z,-1.06
2023-01-30T05:03:51.046Z,-1.14
2023-01-30T05:06:17.408Z,-1.25
2023-01-30T05:08:46.590Z,-1.21
2023-01-30T05:11:13.163Z,-1.13
2023-01-30T05:13:39.495Z,-1.14
2023-01-30T05:16:06.327Z,-1.05
2023-01-30T05:18:33.925Z,-0.86
2023-01-30T05:21:08.505Z,-0.84
2023-01-30T05:23:35.370Z,-0.83
2023-01-30T05:26:02.275Z,-0.57
2023-01-30T05:28:29.303Z,-0.63
2023-01-30T05:31:02.182Z,-0.58
2023-01-30T05:33:28.936Z,-0.62
2023-01-30T05:35:55.294Z,-0.78
2023-01-30T05:38:23.005Z,-0.76
2023-01-30T05:40:59.338Z,-0.86
2023-01-30T05:43:25.954Z,-0.88
2023-01-30T05:45:56.355Z,-0.87
2023-01-30T05:48:23.767Z,-0.99
2023-01-30T05:50:51.860Z,-0.99
2023-01-30T05:53:22.021Z,-1.00
2023-01-30T05:56:15.243Z,-0.80
2023-01-30T05:58:41.957Z,-0.73
2023-01-30T06:01:11.764Z,-0.62
2023-01-30T06:03:38.955Z,-0.73
2023-01-30T06:06:06.115Z,-0.85
2023-01-30T06:08:33.191Z,-0.87
2023-01-30T06:11:13.865Z,-0.87
2023-01-30T06:13:40.328Z,-0.91
2023-01-30T06:16:08.293Z,-0.82
2023-01-30T06:18:35.789Z,-0.84
2023-01-30T06:21:02.175Z,-0.93
2023-01-30T06:23:28.591Z,-0.94
2023-01-30T06:25:55.631Z,-0.97
2023-01-30T06:28:23.092Z,-1.05
2023-01-30T06:30:49.881Z,-1.08
2023-01-30T06:33:16.561Z,-1.07
2023-01-30T06:35:44.077Z,-1.07
2023-01-30T06:38:11.621Z,-1.05
2023-01-30T06:40:38.499Z,-1.03
2023-01-30T06:43:05.076Z,-0.94
2023-01-30T06:45:31.517Z,-0.88
2023-01-30T06:47:57.966Z,-0.99
2023-01-30T06:50:26.658Z,-0.83
2023-01-30T06:52:54.131Z,-0.82
2023-01-30T06:55:22.771Z,-0.61
2023-01-30T06:57:49.788Z,-0.58
2023-01-30T07:00:18.913Z,-0.89
2023-01-30T07:02:46.534Z,-0.84
2023-01-30T07:05:12.915Z,-0.70
2023-01-30T07:07:39.554Z,-0.77
2023-01-30T07:10:09.207Z,-0.73
2023-01-30T07:12:36.221Z,-0.80
2023-01-30T07:15:03.844Z,-0.81
2023-01-30T07:17:30.364Z,-0.76
2023-01-30T07:19:56.897Z,-0.84
2023-01-30T07:22:23.391Z,-0.87
2023-01-30T07:24:49.785Z,-1.00
2023-01-30T07:27:16.928Z,-0.80
2023-01-30T07:29:43.359Z,-0.92
2023-01-30T07:32:15.610Z,-0.87
2023-01-30T07:34:42.149Z,-1.02
2023-01-30T07:37:08.564Z,-1.15
2023-01-30T07:39:35.313Z,-1.20
2023-01-30T07:42:02.531Z,-1.01
2023-01-30T07:44:28.881Z,-1.08
2023-01-30T07:46:55.290Z,-1.06
2023-01-30T07:49:21.644Z,-1.01
2023-01-30T07:51:48.059Z,-1.08
2023-01-30T07:54:14.456Z,-1.03
2023-01-30T07:56:40.809Z,-1.10
2023-01-30T07:59:07.204Z,-1.18
2023-01-30T08:01:33.527Z,-1.15
2023-01-30T08:03:59.848Z,-1.03
2023-01-30T08:06:26.239Z,-1.06
2023-01-30T08:08:52.582Z,-0.99
2023-01-30T08:11:18.913Z,-0.93
2023-01-30T08:13:45.331Z,-0.78
2023-01-30T08:16:11.741Z,-0.61
2023-01-30T08:18:38.260Z,-0.29
2023-01-30T08:21:07.143Z,-0.11
2023-01-30T08:23:34.549Z,-0.31
2023-01-30T08:26:03.190Z,-0.14
2023-01-30T08:28:30.868Z,0.05
2023-01-30T08:30:57.661Z,-0.08
2023-01-30T08:33:24.964Z,0.31
2023-01-30T08:35:51.613Z,-0.13
2023-01-30T08:38:17.968Z,-0.06
2023-01-30T08:40:44.364Z,-0.32
2023-01-30T08:43:10.722Z,-0.26
2023-01-30T08:45:37.120Z,-0.25
2023-01-30T08:48:05.741Z,-0.25
2023-01-30T08:50:33.309Z,-0.40
2023-01-30T08:53:07.632Z,-0.52
2023-01-30T08:55:34.027Z,-0.45
2023-01-30T08:58:00.404Z,-0.35
2023-01-30T09:00:28.129Z,-0.48
2023-01-30T09:02:56.056Z,-0.51
2023-01-30T09:05:22.508Z,-0.51
2023-01-30T09:07:50.295Z,-0.43
2023-01-30T09:10:17.716Z,-0.24
2023-01-30T09:12:44.588Z,-0.23
2023-01-30T09:15:11.388Z,-0.17
2023-01-30T09:17:38.450Z,-0.09
2023-01-30T09:20:09.711Z,-0.15
2023-01-30T09:22:36.772Z,-0.13
2023-01-30T09:25:03.608Z,-0.15
2023-01-30T09:27:29.941Z,-0.06
2023-01-30T09:29:56.344Z,0.04
2023-01-30T09:32:23.556Z,0.05
2023-01-30T09:34:49.915Z,0.21
2023-01-30T09:37:16.263Z,0.24
2023-01-30T09:39:42.599Z,0.29
2023-01-30T09:42:32.794Z,0.33
2023-01-30T09:45:25.239Z,0.32
2023-01-30T09:48:33.780Z,0.51
2023-01-30T09:51:26.865Z,0.43
2023-01-30T09:54:08.435Z,0.63
2023-01-30T09:56:34.972Z,0.88
2023-01-30T09:59:03.448Z,0.83
2023-01-30T10:01:40.675Z,0.71
2023-01-30T10:04:29.482Z,0.54
2023-01-30T10:06:59.688Z,0.42
2023-01-30T10:09:38.443Z,0.40
2023-01-30T10:12:29.783Z,0.47
2023-01-30T10:15:28.893Z,0.49
2023-01-30T10:18:07.913Z,0.72
2023-01-30T10:20:39.526Z,0.81
2023-01-30T10:23:18.926Z,0.69
2023-01-30T10:25:49.395Z,0.71
2023-01-30T10:28:21.469Z,0.94
2023-01-30T10:30:49.350Z,1.01
2023-01-30T10:33:22.593Z,0.93
2023-01-30T10:36:10.476Z,0.75
2023-01-30T10:38:46.332Z,0.70
2023-01-30T10:41:34.732Z,0.68
2023-01-30T10:44:13.453Z,0.64
2023-01-30T10:47:12.382Z,0.67
2023-01-30T10:49:52.583Z,0.53
2023-01-30T10:52:32.732Z,0.48
2023-01-30T10:55:31.484Z,0.70
2023-01-30T10:58:23.679Z,0.73
2023-01-30T11:01:01.170Z,0.73
2023-01-30T11:03:49.242Z,0.83
2023-01-30T11:06:19.415Z,0.95
2023-01-30T11:08:46.101Z,1.08
2023-01-30T11:11:27.074Z,1.23
2023-01-30T11:14:08.150Z,1.08
2023-01-30T11:16:43.498Z,1.12
2023-01-30T11:19:20.852Z,1.33
2023-01-30T11:21:54.423Z,1.41
2023-01-30T11:24:29.196Z,1.48
2023-01-30T11:27:08.925Z,1.63
2023-01-30T11:29:39.220Z,1.64
2023-01-30T11:32:13.013Z,1.79
2023-01-30T11:34:43.033Z,1.81
2023-01-30T11:37:27.428Z,1.85
2023-01-30T11:39:54.313Z,1.88
2023-01-30T11:42:29.483Z,1.92
2023-01-30T11:45:15.538Z,1.97
2023-01-30T11:48:05.001Z,2.10
2023-01-30T11:50:44.546Z,2.26
2023-01-30T11:53:23.792Z,2.41
2023-01-30T11:56:02.869Z,2.34
2023-01-30T11:58:33.944Z,2.41
2023-01-30T12:01:02.049Z,2.46
2023-01-30T12:03:29.956Z,2.48
2023-01-30T12:05:58.698Z,2.52
2023-01-30T12:08:41.054Z,2.43
2023-01-30T12:11:28.864Z,2.33
2023-01-30T12:14:04.997Z,2.49
2023-01-30T12:16:44.319Z,2.72
2023-01-30T12:19:33.903Z,2.83
2023-01-30T12:22:18.756Z,2.97
2023-01-30T12:25:01.384Z,3.23
2023-01-30T12:27:55.241Z,3.10
2023-01-30T12:33:06.801Z,2.86
2023-01-30T12:36:01.276Z,2.96
2023-01-30T12:38:58.167Z,3.14
2023-01-30T12:41:55.525Z,3.33
2023-01-30T12:44:42.783Z,3.24
2023-01-30T12:47:41.691Z,3.46
2023-01-30T12:50:21.111Z,3.40
2023-01-30T12:52:59.249Z,3.35
2023-01-30T12:55:51.359Z,3.49
2023-01-30T12:58:46.650Z,3.52
2023-01-30T13:01:40.307Z,3.37
2023-01-30T13:04:24.988Z,3.42
2023-01-30T13:07:22.403Z,3.35
2023-01-30T13:09:58.599Z,3.29
2023-01-30T13:12:42.034Z,3.24
2023-01-30T13:15:31.960Z,3.29
2023-01-30T13:18:15.272Z,3.41
2023-01-30T13:20:52.542Z,3.42
2023-01-30T13:23:36.400Z,3.51
2023-01-30T13:26:10.199Z,3.55
2023-01-30T13:28:48.585Z,3.65
2023-01-30T13:31:21.238Z,3.61
2023-01-30T13:33:50.720Z,3.65
2023-01-30T13:36:22.747Z,3.53
2023-01-30T13:39:03.943Z,3.47
2023-01-30T13:41:35.638Z,3.42
2023-01-30T13:44:13.420Z,3.29
2023-01-30T13:46:40.335Z,3.23
2023-01-30T13:49:15.771Z,3.21
2023-01-30T13:51:47.253Z,3.23
2023-01-30T13:54:23.904Z,3.29
2023-01-30T13:57:23.737Z,3.20
2023-01-30T14:00:18.217Z,3.27
2023-01-30T14:03:03.162Z,3.33
2023-01-30T14:05:51.555Z,3.27
2023-01-30T14:08:22.860Z,3.23
2023-01-30T14:10:50.129Z,3.30
2023-01-30T14:13:17.631Z,3.28
2023-01-30T14:15:58.962Z,3.22
2023-01-30T14:18:33.733Z,3.22
2023-01-30T14:21:13.813Z,3.31
2023-01-30T14:23:53.532Z,3.27
2023-01-30T14:26:48.559Z,3.28
2023-01-30T14:29:42.909Z,3.23
2023-01-30T14:32:13.977Z,3.36
2023-01-30T14:35:09.895Z,3.29
2023-01-30T14:37:39.078Z,3.30
2023-01-30T14:40:20.751Z,3.30
2023-01-30T14:43:12.258Z,3.33
2023-01-30T14:45:47.969Z,3.31
2023-01-30T14:48:32.075Z,3.36
2023-01-30T14:51:36.891Z,3.31
2023-01-30T14:54:10.027Z,3.42
2023-01-30T14:56:54.611Z,3.70
2023-01-30T14:59:26.335Z,3.87
2023-01-30T15:02:11.985Z,3.75
2023-01-30T15:04:56.016Z,3.54
2023-01-30T15:07:27.401Z,3.48
2023-01-30T15:10:32.589Z,3.46
2023-01-30T15:13:21.491Z,3.49
2023-01-30T15:16:19.863Z,3.45
2023-01-30T15:19:14.517Z,3.45
2023-01-30T15:22:02.948Z,3.32
2023-01-30T15:24:47.985Z,3.45
2023-01-30T15:27:31.484Z,3.44
2023-01-30T15:30:20.929Z,3.33
2023-01-30T15:32:47.550Z,3.29
2023-01-30T15:35:17.105Z,3.33
2023-01-30T15:37:46.405Z,3.38
2023-01-30T15:40:16.036Z,3.45
2023-01-30T15:43:00.664Z,3.35
2023-01-30T15:46:11.262Z,3.24
2023-01-30T15:49:16.553Z,3.26
2023-01-30T15:51:43.088Z,3.22
2023-01-30T15:54:14.568Z,3.24
2023-01-30T15:56:41.116Z,3.27
2023-01-30T15:59:08.404Z,3.25
2023-01-30T16:01:34.788Z,3.21
2023-01-30T16:04:04.856Z,3.19
2023-01-30T16:06:34.544Z,3.09
2023-01-30T16:09:19.739Z,3.10
2023-01-30T16:11:46.251Z,3.10
2023-01-30T16:14:15.053Z,3.13
2023-01-30T16:16:47.090Z,3.05
2023-01-30T16:19:21.223Z,2.81
2023-01-30T16:21:48.203Z,2.69
2023-01-30T16:24:24.663Z,2.78
2023-01-30T16:27:00.745Z,2.75
2023-01-30T16:29:30.006Z,2.75
2023-01-30T16:31:57.252Z,2.57
2023-01-30T16:34:38.311Z,2.66
2023-01-30T16:37:07.563Z,2.57
2023-01-30T16:39:36.281Z,2.57
2023-01-30T16:42:19.919Z,2.57
2023-01-30T16:44:46.285Z,2.58
2023-01-30T16:47:25.092Z,2.69
2023-01-30T16:49:53.284Z,2.70
2023-01-30T16:52:26.107Z,2.79
2023-01-30T16:54:55.934Z,2.70
2023-01-30T16:57:36.312Z,2.51
2023-01-30T17:00:21.268Z,2.32
2023-01-30T17:02:53.335Z,2.34
2023-01-30T17:05:22.779Z,2.43
2023-01-30T17:07:50.463Z,2.61
2023-01-30T17:10:41.656Z,2.36
2023-01-30T17:13:30.457Z,2.33
2023-01-30T17:16:25.957Z,2.39
2023-01-30T17:18:55.205Z,2.37
2023-01-30T17:21:23.656Z,2.44
2023-01-30T17:23:55.148Z,2.28
2023-01-30T17:26:21.604Z,2.37
2023-01-30T17:28:48.000Z,2.34
2023-01-30T17:31:15.711Z,2.43
2023-01-30T17:33:42.659Z,2.29
2023-01-30T17:36:25.866Z,2.35
2023-01-30T17:38:52.429Z,2.41
2023-01-30T17:41:21.281Z,2.46
2023-01-30T17:43:49.736Z,2.46
2023-01-30T17:46:17.216Z,2.51
2023-01-30T17:48:44.397Z,2.65
2023-01-30T17:51:13.983Z,2.62
2023-01-30T17:53:41.688Z,2.60
2023-01-30T17:56:17.319Z,2.51
2023-01-30T17:58:43.647Z,2.52
2023-01-30T18:01:11.915Z,2.55
2023-01-30T18:03:38.238Z,2.62
2023-01-30T18:06:04.727Z,2.79
2023-01-30T18:08:31.056Z,2.71
2023-01-30T18:10:57.463Z,2.64
2023-01-30T18:13:23.801Z,2.70
2023-01-30T18:15:52.357Z,2.64
2023-01-30T18:18:19.008Z,2.56
2023-01-30T18:20:46.849Z,2.71
2023-01-30T18:23:13.811Z,2.81
2023-01-30T18:25:40.145Z,2.83
2023-01-30T18:28:09.917Z,2.82
2023-01-30T18:30:36.335Z,2.90
2023-01-30T18:33:02.681Z,3.00
2023-01-30T18:35:29.096Z,2.82
2023-01-30T18:37:59.387Z,2.78
2023-01-30T18:40:28.671Z,2.78
2023-01-30T18:42:54.990Z,2.71
2023-01-30T18:45:21.336Z,2.68
2023-01-30T18:47:47.836Z,2.82
2023-01-30T18:50:14.219Z,2.62
2023-01-30T18:52:40.548Z,2.64
2023-01-30T18:55:07.181Z,2.66
2023-01-30T18:57:33.515Z,2.70
2023-01-30T18:59:59.848Z,2.64
2023-01-30T19:02:26.203Z,2.61
2023-01-30T19:04:52.582Z,2.57
2023-01-30T19:07:18.998Z,2.60
2023-01-30T19:09:45.402Z,2.82
2023-01-30T19:12:30.604Z,2.69
2023-01-30T19:14:56.943Z,2.59
2023-01-30T19:17:23.319Z,2.43
2023-01-30T19:19:49.860Z,2.41
2023-01-30T19:22:17.970Z,2.51
2023-01-30T19:24:44.560Z,2.48
2023-01-30T19:27:13.692Z,2.46
2023-01-30T19:29:41.393Z,2.53
2023-01-30T19:32:07.719Z,2.72
2023-01-30T19:34:34.079Z,2.83
2023-01-30T19:37:01.102Z,2.84
2023-01-30T19:39:27.438Z,2.71
2023-01-30T19:41:53.780Z,2.67
2023-01-30T19:44:20.162Z,2.64
2023-01-30T19:46:46.643Z,2.83
2023-01-30T19:49:13.036Z,2.97
2023-01-30T19:51:40.517Z,3.01
2023-01-30T19:54:09.439Z,3.17
2023-01-30T19:56:37.484Z,3.42
2023-01-30T19:59:04.490Z,3.49
2023-01-30T20:01:35.257Z,3.47
2023-01-30T20:04:02.389Z,3.47
2023-01-30T20:06:31.700Z,3.18
2023-01-30T20:09:00.891Z,3.37
2023-01-30T20:11:27.795Z,2.82
2023-01-30T20:13:54.763Z,2.71
2023-01-30T20:16:25.274Z,2.96
2023-01-30T20:18:59.739Z,2.99
2023-01-30T20:21:27.225Z,3.18
2023-01-30T20:23:54.848Z,3.11
2023-01-30T20:26:24.421Z,3.24
2023-01-30T20:28:51.207Z,3.06
2023-01-30T20:31:20.567Z,2.92
2023-01-30T20:33:47.484Z,2.87
2023-01-30T20:36:17.568Z,3.01
2023-01-30T20:38:45.366Z,2.99
2023-01-30T20:41:14.809Z,3.17
2023-01-30T20:43:46.569Z,3.44
2023-01-30T20:46:18.589Z,3.47
2023-01-30T20:48:45.517Z,3.08
2023-01-30T20:51:18.037Z,2.84
2023-01-30T20:53:50.135Z,2.84
2023-01-30T20:56:16.757Z,2.86
2023-01-30T20:58:43.271Z,2.86
2023-01-30T21:01:12.386Z,2.83
2023-01-30T21:03:39.563Z,2.85
2023-01-30T21:06:06.005Z,2.79
2023-01-30T21:08:32.551Z,2.62
2023-01-30T21:11:14.641Z,2.70
2023-01-30T21:13:41.687Z,2.65
2023-01-30T21:16:20.941Z,2.56
2023-01-30T21:18:49.908Z,2.75
2023-01-30T21:21:19.936Z,2.96
2023-01-30T21:23:47.505Z,3.03
2023-01-30T21:26:15.698Z,3.29
2023-01-30T21:28:42.898Z,3.40
2023-01-30T21:31:12.903Z,3.47
2023-01-30T21:33:40.211Z,3.88
2023-01-30T21:36:07.335Z,3.82
2023-01-30T21:38:52.916Z,2.96
2023-01-30T21:41:40.322Z,2.94
2023-01-30T21:44:06.914Z,2.84
2023-01-30T21:46:51.755Z,3.03
2023-01-30T21:49:19.082Z,3.18
2023-01-30T21:51:47.434Z,3.28
2023-01-30T21:54:15.429Z,3.40
2023-01-30T21:56:42.288Z,3.58
2023-01-30T21:59:08.671Z,3.55
2023-01-30T22:01:36.669Z,3.63
2023-01-30T22:04:05.499Z,3.55
2023-01-30T22:06:32.807Z,3.17
2023-01-30T22:09:01.201Z,3.11
2023-01-30T22:11:28.692Z,2.76
2023-01-30T22:13:55.840Z,2.79
2023-01-30T22:16:27.402Z,2.82
2023-01-30T22:18:56.522Z,2.86
2023-01-30T22:21:24.991Z,2.71
2023-01-30T22:23:52.939Z,2.70
2023-01-30T22:26:21.584Z,2.57
2023-01-30T22:28:48.045Z,2.63
2023-01-30T22:31:17.580Z,2.72
2023-01-30T22:33:45.916Z,2.54
2023-01-30T22:36:13.073Z,2.49
2023-01-30T22:38:47.599Z,2.59
2023-01-30T22:41:18.256Z,2.80
2023-01-30T22:43:58.489Z,2.87
2023-01-30T22:46:33.482Z,3.04
2023-01-30T22:49:01.683Z,3.02
2023-01-30T22:51:30.469Z,3.24
2023-01-30T22:54:02.176Z,3.18
2023-01-30T22:56:31.485Z,3.01
2023-01-30T22:58:57.826Z,3.43
2023-01-30T23:01:26.595Z,3.38
2023-01-30T23:03:57.319Z,3.36
2023-01-30T23:06:24.444Z,3.07
2023-01-30T23:08:52.515Z,3.24
2023-01-30T23:11:40.563Z,3.14
2023-01-30T23:14:13.367Z,2.87
2023-01-30T23:16:43.349Z,3.04
2023-01-30T23:19:11.647Z,3.38
2023-01-30T23:21:43.503Z,3.36
2023-01-30T23:24:15.764Z,3.19
2023-01-30T23:26:46.399Z,3.11
2023-01-30T23:29:15.041Z,2.99
2023-01-30T23:31:42.824Z,3.06
2023-01-30T23:34:18.280Z,3.08
2023-01-30T23:36:45.782Z,3.18
2023-01-30T23:39:13.405Z,3.01
2023-01-30T23:41:41.777Z,3.09
2023-01-30T23:44:08.247Z,3.09
2023-01-30T23:46:37.688Z,3.22
2023-01-30T23:49:09.536Z,3.63
2023-01-30T23:51:38.697Z,3.83
2023-01-30T23:54:05.747Z,3.87
2023-01-30T23:56:36.201Z,3.55
2023-01-30T23:59:03.359Z,3.40
